Santa Barbara, CA (93101)

3:39 AM PDT on April 28, 2017 (GMT -0700)
Westside (Gillespie) | | Change Station
Active Advisory: Wind Advisory

Elev 85 ft 34.42 °N, 119.72 °W | Updated 12 seconds ago

Clear
Clear
65.7 °F
Feels Like 65.7 °F
N
0.0
Wind Variable Wind from SSE
Gusts 0.0 mph

Today
High -- | Low -- °F
--% Chance of Precip.
Yesterday
High -- | Low -- °F
Precip. -- in
Pressure 29.78 in
Visibility 10.0 miles
Clouds Clear
Dew Point 37 °F
Humidity 35%
Rainfall 0.00 in
Snow Depth Not available.
6:11 AM 7:41 PM
Waxing Crescent, 6% visible
METAR KSBA 280953Z AUTO 30007KT 10SM CLR 17/04 A2978 RMK AO2 SLP083 T01670039
Pressure 29.78 in
Visibility 10.0 miles
Clouds Clear
Dew Point 37 °F
Humidity 35%
Rainfall 0.00 in
Snow Depth Not available.
6:11 AM 7:41 PM
Waxing Crescent, 6% visible
METAR KSBA 280953Z AUTO 30007KT 10SM CLR 17/04 A2978 RMK AO2 SLP083 T01670039

Get Your Daily Forecast Email!

Thanks for signing up!

Be on the lookout for a verification email in your inbox.

You'll start receiving severe weather alerts in your inbox..

×

10-Day Weather Forecast

Almanac

Astronomy

Apr. 28, 2017 Rise Set
Actual Time
Civil Twilight
Nautical Twilight
Astronomical Twilight
Moon
Length of Visible Light
Length of Day
Tomorrow will be .
, % of the Moon is Illuminated

Today's Extremes

State Highs State Lows

Community

WunderPhotos

WunderBlog® & News

Nearby

Air Quality

  Air Quality AQ Index Pollutant
Not available.

Snow Depth

Station Depth Elevation

Earthquake Activity

City Distance Mag. Time & Date
Minimum magnitude displayed is 2.5.

Coastal Water Temperatures

Place Temperature

Stations

Nearby Weather Stations

Station Location Temp. Windchill Dew Point Humidity Wind Precip. Elev Updated Type
                   

Watches & Warnings

Wind Advisory
Issued: 1:50 AM PDT Apr. 28, 2017 – National Weather Service

... Wind Advisory remains in effect until 9 am PDT this morning...

* winds and timing... areas of northerly winds 20 to 30 mph with
gusts to between 40 to 50 mph will continue through mid morning.
Winds will be strongest through and below passes and canyons.

* Impacts... gusty winds will make driving difficult, especially
for drivers of high profile vehicles. Major roads that will be
affected include highways 101, 154, and 192 including in and
around Gaviota and San Marcos passes.

Precautionary/preparedness actions...

When driving, use extra caution. Be prepared for sudden gusty
cross winds.